sensor_id;sensor_type;location;lat;lon;timestamp;temperature;humidity
20091;DHT22;10205;49.678;6.560;2023-07-08T00:00:26;31.00;34.70
20091;DHT22;10205;49.678;6.560;2023-07-08T00:02:59;31.00;34.70
20091;DHT22;10205;49.678;6.560;2023-07-08T00:05:26;30.90;35.20
20091;DHT22;10205;49.678;6.560;2023-07-08T00:07:54;30.90;34.80
20091;DHT22;10205;49.678;6.560;2023-07-08T00:10:23;30.80;34.90
20091;DHT22;10205;49.678;6.560;2023-07-08T00:13:03;30.70;35.00
20091;DHT22;10205;49.678;6.560;2023-07-08T00:15:32;30.60;35.10
20091;DHT22;10205;49.678;6.560;2023-07-08T00:17:59;30.60;35.80
20091;DHT22;10205;49.678;6.560;2023-07-08T00:20:32;30.50;35.10
20091;DHT22;10205;49.678;6.560;2023-07-08T00:23:02;30.40;35.30
20091;DHT22;10205;49.678;6.560;2023-07-08T00:25:30;30.40;35.20
20091;DHT22;10205;49.678;6.560;2023-07-08T00:27:58;30.30;35.30
20091;DHT22;10205;49.678;6.560;2023-07-08T00:30:28;30.30;35.40
20091;DHT22;10205;49.678;6.560;2023-07-08T00:32:57;30.20;35.40
20091;DHT22;10205;49.678;6.560;2023-07-08T00:35:30;30.20;35.50
20091;DHT22;10205;49.678;6.560;2023-07-08T00:37:59;30.10;35.60
20091;DHT22;10205;49.678;6.560;2023-07-08T00:40:29;30.00;35.50
20091;DHT22;10205;49.678;6.560;2023-07-08T00:43:01;30.00;35.60
20091;DHT22;10205;49.678;6.560;2023-07-08T00:45:38;29.90;35.60
20091;DHT22;10205;49.678;6.560;2023-07-08T00:48:16;29.90;35.90
20091;DHT22;10205;49.678;6.560;2023-07-08T00:50:49;29.80;35.80
20091;DHT22;10205;49.678;6.560;2023-07-08T00:53:28;29.80;35.80
20091;DHT22;10205;49.678;6.560;2023-07-08T00:55:59;29.70;36.00
20091;DHT22;10205;49.678;6.560;2023-07-08T00:58:49;29.60;35.90
20091;DHT22;10205;49.678;6.560;2023-07-08T01:01:25;29.60;36.00
20091;DHT22;10205;49.678;6.560;2023-07-08T01:03:57;29.60;36.10
20091;DHT22;10205;49.678;6.560;2023-07-08T01:06:29;29.50;36.00
20091;DHT22;10205;49.678;6.560;2023-07-08T01:09:14;29.40;36.10
20091;DHT22;10205;49.678;6.560;2023-07-08T01:11:42;29.40;36.10
20091;DHT22;10205;49.678;6.560;2023-07-08T01:14:12;29.30;36.10
20091;DHT22;10205;49.678;6.560;2023-07-08T01:17:07;29.30;36.30
20091;DHT22;10205;49.678;6.560;2023-07-08T01:19:40;29.20;36.30
20091;DHT22;10205;49.678;6.560;2023-07-08T01:22:09;29.10;36.30
20091;DHT22;10205;49.678;6.560;2023-07-08T01:24:39;29.10;36.40
20091;DHT22;10205;49.678;6.560;2023-07-08T01:27:12;29.00;36.50
20091;DHT22;10205;49.678;6.560;2023-07-08T01:29:41;29.00;36.60
20091;DHT22;10205;49.678;6.560;2023-07-08T01:32:20;28.90;36.50
20091;DHT22;10205;49.678;6.560;2023-07-08T01:34:48;28.80;36.70
20091;DHT22;10205;49.678;6.560;2023-07-08T01:37:30;28.80;36.70
20091;DHT22;10205;49.678;6.560;2023-07-08T01:40:19;28.80;36.80
20091;DHT22;10205;49.678;6.560;2023-07-08T01:42:51;28.70;36.90
20091;DHT22;10205;49.678;6.560;2023-07-08T01:45:21;28.70;36.80
20091;DHT22;10205;49.678;6.560;2023-07-08T01:47:54;28.60;36.90
20091;DHT22;10205;49.678;6.560;2023-07-08T01:50:26;28.60;37.00
20091;DHT22;10205;49.678;6.560;2023-07-08T01:52:58;28.50;36.90
20091;DHT22;10205;49.678;6.560;2023-07-08T01:55:27;28.50;37.10
20091;DHT22;10205;49.678;6.560;2023-07-08T01:58:05;28.40;37.10
20091;DHT22;10205;49.678;6.560;2023-07-08T02:00:32;28.40;37.40
20091;DHT22;10205;49.678;6.560;2023-07-08T02:02:59;28.40;37.30
20091;DHT22;10205;49.678;6.560;2023-07-08T02:05:27;28.30;37.40
20091;DHT22;10205;49.678;6.560;2023-07-08T02:07:55;28.20;37.40
20091;DHT22;10205;49.678;6.560;2023-07-08T02:10:23;28.20;37.50
20091;DHT22;10205;49.678;6.560;2023-07-08T02:13:18;28.10;37.60
20091;DHT22;10205;49.678;6.560;2023-07-08T02:15:46;28.10;37.70
20091;DHT22;10205;49.678;6.560;2023-07-08T02:18:13;28.00;37.60
20091;DHT22;10205;49.678;6.560;2023-07-08T02:20:40;28.00;37.80
20091;DHT22;10205;49.678;6.560;2023-07-08T02:23:19;27.90;37.70
20091;DHT22;10205;49.678;6.560;2023-07-08T02:25:51;27.90;38.00
20091;DHT22;10205;49.678;6.560;2023-07-08T02:28:18;27.80;38.10
20091;DHT22;10205;49.678;6.560;2023-07-08T02:30:46;27.80;38.00
20091;DHT22;10205;49.678;6.560;2023-07-08T02:33:13;27.70;38.10
20091;DHT22;10205;49.678;6.560;2023-07-08T02:35:43;27.70;38.10
20091;DHT22;10205;49.678;6.560;2023-07-08T02:38:11;27.70;38.20
20091;DHT22;10205;49.678;6.560;2023-07-08T02:40:39;27.60;38.20
20091;DHT22;10205;49.678;6.560;2023-07-08T02:43:07;27.60;38.40
20091;DHT22;10205;49.678;6.560;2023-07-08T02:45:34;27.50;38.20
20091;DHT22;10205;49.678;6.560;2023-07-08T02:48:03;27.50;38.30
20091;DHT22;10205;49.678;6.560;2023-07-08T02:50:30;27.50;38.50
20091;DHT22;10205;49.678;6.560;2023-07-08T02:52:57;27.40;38.40
20091;DHT22;10205;49.678;6.560;2023-07-08T02:55:24;27.40;38.60
20091;DHT22;10205;49.678;6.560;2023-07-08T02:57:53;27.40;38.60
20091;DHT22;10205;49.678;6.560;2023-07-08T03:00:20;27.30;38.70
20091;DHT22;10205;49.678;6.560;2023-07-08T03:02:47;27.30;38.70
20091;DHT22;10205;49.678;6.560;2023-07-08T03:05:15;27.20;38.70
20091;DHT22;10205;49.678;6.560;2023-07-08T03:08:00;27.20;38.80
20091;DHT22;10205;49.678;6.560;2023-07-08T03:10:28;27.10;39.00
20091;DHT22;10205;49.678;6.560;2023-07-08T03:12:56;27.10;38.80
20091;DHT22;10205;49.678;6.560;2023-07-08T03:15:23;27.10;39.00
20091;DHT22;10205;49.678;6.560;2023-07-08T03:17:50;27.00;38.90
20091;DHT22;10205;49.678;6.560;2023-07-08T03:20:19;27.00;39.00
20091;DHT22;10205;49.678;6.560;2023-07-08T03:22:46;26.90;39.10
20091;DHT22;10205;49.678;6.560;2023-07-08T03:25:14;26.90;39.10
20091;DHT22;10205;49.678;6.560;2023-07-08T03:27:58;26.90;39.30
20091;DHT22;10205;49.678;6.560;2023-07-08T03:30:26;26.80;39.40
20091;DHT22;10205;49.678;6.560;2023-07-08T03:32:54;26.80;39.40
20091;DHT22;10205;49.678;6.560;2023-07-08T03:35:21;26.70;39.30
20091;DHT22;10205;49.678;6.560;2023-07-08T03:37:48;26.70;39.40
20091;DHT22;10205;49.678;6.560;2023-07-08T03:40:15;26.70;39.50
20091;DHT22;10205;49.678;6.560;2023-07-08T03:42:54;26.70;39.50
20091;DHT22;10205;49.678;6.560;2023-07-08T03:45:25;26.60;39.70
20091;DHT22;10205;49.678;6.560;2023-07-08T03:47:52;26.60;39.60
20091;DHT22;10205;49.678;6.560;2023-07-08T03:50:22;26.60;39.70
20091;DHT22;10205;49.678;6.560;2023-07-08T03:52:54;26.50;39.80
20091;DHT22;10205;49.678;6.560;2023-07-08T03:55:22;26.50;39.90
20091;DHT22;10205;49.678;6.560;2023-07-08T03:57:50;26.40;39.80
20091;DHT22;10205;49.678;6.560;2023-07-08T04:00:17;26.40;39.80
20091;DHT22;10205;49.678;6.560;2023-07-08T04:02:55;26.40;39.90
20091;DHT22;10205;49.678;6.560;2023-07-08T04:05:23;26.30;40.10
20091;DHT22;10205;49.678;6.560;2023-07-08T04:07:50;26.30;40.00
20091;DHT22;10205;49.678;6.560;2023-07-08T04:10:17;26.30;40.00
20091;DHT22;10205;49.678;6.560;2023-07-08T04:12:45;26.30;40.10
20091;DHT22;10205;49.678;6.560;2023-07-08T04:15:12;26.20;40.10
20091;DHT22;10205;49.678;6.560;2023-07-08T04:17:43;26.20;40.20
20091;DHT22;10205;49.678;6.560;2023-07-08T04:20:17;26.10;40.30
20091;DHT22;10205;49.678;6.560;2023-07-08T04:22:51;26.10;40.30
20091;DHT22;10205;49.678;6.560;2023-07-08T04:25:19;26.10;40.50
20091;DHT22;10205;49.678;6.560;2023-07-08T04:27:46;26.00;40.30
20091;DHT22;10205;49.678;6.560;2023-07-08T04:30:21;26.00;40.30
20091;DHT22;10205;49.678;6.560;2023-07-08T04:32:51;26.00;40.80
20091;DHT22;10205;49.678;6.560;2023-07-08T04:35:20;25.90;40.50
20091;DHT22;10205;49.678;6.560;2023-07-08T04:37:47;25.90;40.60
20091;DHT22;10205;49.678;6.560;2023-07-08T04:40:18;25.90;40.50
20091;DHT22;10205;49.678;6.560;2023-07-08T04:42:46;25.80;40.60
20091;DHT22;10205;49.678;6.560;2023-07-08T04:45:16;25.80;40.60
20091;DHT22;10205;49.678;6.560;2023-07-08T04:47:44;25.70;40.70
20091;DHT22;10205;49.678;6.560;2023-07-08T04:50:12;25.70;40.70
20091;DHT22;10205;49.678;6.560;2023-07-08T04:52:41;25.70;40.70
20091;DHT22;10205;49.678;6.560;2023-07-08T04:55:08;25.60;40.90
20091;DHT22;10205;49.678;6.560;2023-07-08T04:57:51;25.60;40.80
20091;DHT22;10205;49.678;6.560;2023-07-08T05:00:18;25.60;41.00
20091;DHT22;10205;49.678;6.560;2023-07-08T05:02:46;25.60;40.90
20091;DHT22;10205;49.678;6.560;2023-07-08T05:05:13;25.50;40.80
20091;DHT22;10205;49.678;6.560;2023-07-08T05:07:42;25.50;40.90
20091;DHT22;10205;49.678;6.560;2023-07-08T05:10:10;25.50;41.10
20091;DHT22;10205;49.678;6.560;2023-07-08T05:12:37;25.40;41.00
20091;DHT22;10205;49.678;6.560;2023-07-08T05:15:05;25.40;41.10
20091;DHT22;10205;49.678;6.560;2023-07-08T05:17:50;25.40;41.20
20091;DHT22;10205;49.678;6.560;2023-07-08T05:20:18;25.40;41.40
20091;DHT22;10205;49.678;6.560;2023-07-08T05:22:49;25.30;41.20
20091;DHT22;10205;49.678;6.560;2023-07-08T05:25:18;25.30;41.40
20091;DHT22;10205;49.678;6.560;2023-07-08T05:27:46;25.30;41.40
20091;DHT22;10205;49.678;6.560;2023-07-08T05:30:16;25.30;41.40
20091;DHT22;10205;49.678;6.560;2023-07-08T05:33:03;25.20;41.50
20091;DHT22;10205;49.678;6.560;2023-07-08T05:35:30;25.20;41.60
20091;DHT22;10205;49.678;6.560;2023-07-08T05:37:59;25.20;41.40
20091;DHT22;10205;49.678;6.560;2023-07-08T05:40:26;25.20;41.60
20091;DHT22;10205;49.678;6.560;2023-07-08T05:42:53;25.20;41.60
20091;DHT22;10205;49.678;6.560;2023-07-08T05:45:20;25.10;41.60
20091;DHT22;10205;49.678;6.560;2023-07-08T05:47:48;25.10;41.70
20091;DHT22;10205;49.678;6.560;2023-07-08T05:50:15;25.10;41.70
20091;DHT22;10205;49.678;6.560;2023-07-08T05:52:42;25.10;41.80
20091;DHT22;10205;49.678;6.560;2023-07-08T05:55:11;25.10;41.90
20091;DHT22;10205;49.678;6.560;2023-07-08T05:57:38;25.10;42.00
20091;DHT22;10205;49.678;6.560;2023-07-08T06:00:06;25.10;42.00
20091;DHT22;10205;49.678;6.560;2023-07-08T06:02:35;25.10;42.10
20091;DHT22;10205;49.678;6.560;2023-07-08T06:05:02;25.00;42.00
20091;DHT22;10205;49.678;6.560;2023-07-08T06:07:29;25.10;42.10
20091;DHT22;10205;49.678;6.560;2023-07-08T06:09:57;25.10;42.10
20091;DHT22;10205;49.678;6.560;2023-07-08T06:12:26;25.10;42.20
20091;DHT22;10205;49.678;6.560;2023-07-08T06:14:55;25.10;42.20
20091;DHT22;10205;49.678;6.560;2023-07-08T06:17:23;25.10;42.20
20091;DHT22;10205;49.678;6.560;2023-07-08T06:19:50;25.10;42.30
20091;DHT22;10205;49.678;6.560;2023-07-08T06:22:29;25.10;42.30
20091;DHT22;10205;49.678;6.560;2023-07-08T06:24:57;25.10;42.60
20091;DHT22;10205;49.678;6.560;2023-07-08T06:30:13;25.10;42.50
20091;DHT22;10205;49.678;6.560;2023-07-08T06:32:59;25.10;42.50
20091;DHT22;10205;49.678;6.560;2023-07-08T06:35:26;25.10;42.60
20091;DHT22;10205;49.678;6.560;2023-07-08T06:37:53;25.20;42.60
20091;DHT22;10205;49.678;6.560;2023-07-08T06:40:21;25.20;42.70
20091;DHT22;10205;49.678;6.560;2023-07-08T06:42:49;25.20;42.70
20091;DHT22;10205;49.678;6.560;2023-07-08T06:45:17;25.20;42.70
20091;DHT22;10205;49.678;6.560;2023-07-08T06:47:44;25.30;42.70
20091;DHT22;10205;49.678;6.560;2023-07-08T06:50:11;25.30;42.70
20091;DHT22;10205;49.678;6.560;2023-07-08T06:52:57;25.30;42.70
20091;DHT22;10205;49.678;6.560;2023-07-08T06:55:25;25.30;42.80
20091;DHT22;10205;49.678;6.560;2023-07-08T06:57:53;25.40;42.80
20091;DHT22;10205;49.678;6.560;2023-07-08T07:00:20;25.40;42.80
20091;DHT22;10205;49.678;6.560;2023-07-08T07:02:48;25.40;42.90
20091;DHT22;10205;49.678;6.560;2023-07-08T07:05:15;25.50;43.10
20091;DHT22;10205;49.678;6.560;2023-07-08T07:07:42;25.50;43.10
20091;DHT22;10205;49.678;6.560;2023-07-08T07:10:10;25.60;43.50
20091;DHT22;10205;49.678;6.560;2023-07-08T07:12:37;25.60;43.20
20091;DHT22;10205;49.678;6.560;2023-07-08T07:15:06;25.60;43.60
20091;DHT22;10205;49.678;6.560;2023-07-08T07:17:34;25.60;43.20
20091;DHT22;10205;49.678;6.560;2023-07-08T07:20:01;25.60;43.50
20091;DHT22;10205;49.678;6.560;2023-07-08T07:22:31;25.70;43.30
20091;DHT22;10205;49.678;6.560;2023-07-08T07:24:59;25.70;43.20
20091;DHT22;10205;49.678;6.560;2023-07-08T07:27:27;25.80;43.20
20091;DHT22;10205;49.678;6.560;2023-07-08T07:29:54;25.80;43.20
20091;DHT22;10205;49.678;6.560;2023-07-08T07:32:24;25.90;43.20
20091;DHT22;10205;49.678;6.560;2023-07-08T07:34:52;25.90;43.10
20091;DHT22;10205;49.678;6.560;2023-07-08T07:37:41;26.00;43.10
20091;DHT22;10205;49.678;6.560;2023-07-08T07:40:12;26.00;43.10
20091;DHT22;10205;49.678;6.560;2023-07-08T07:42:42;26.10;43.10
20091;DHT22;10205;49.678;6.560;2023-07-08T07:45:10;26.20;43.20
20091;DHT22;10205;49.678;6.560;2023-07-08T07:47:40;26.20;43.00
20091;DHT22;10205;49.678;6.560;2023-07-08T07:50:08;26.30;43.10
20091;DHT22;10205;49.678;6.560;2023-07-08T07:52:36;26.30;42.90
20091;DHT22;10205;49.678;6.560;2023-07-08T07:55:04;26.40;42.80
20091;DHT22;10205;49.678;6.560;2023-07-08T07:57:53;26.50;42.90
20091;DHT22;10205;49.678;6.560;2023-07-08T08:00:21;26.50;42.90
20091;DHT22;10205;49.678;6.560;2023-07-08T08:02:50;26.70;42.90
20091;DHT22;10205;49.678;6.560;2023-07-08T08:05:17;26.70;42.80
20091;DHT22;10205;49.678;6.560;2023-07-08T08:07:53;26.80;42.90
20091;DHT22;10205;49.678;6.560;2023-07-08T08:10:21;26.80;42.90
20091;DHT22;10205;49.678;6.560;2023-07-08T08:12:48;27.00;42.90
20091;DHT22;10205;49.678;6.560;2023-07-08T08:15:18;27.00;42.90
20091;DHT22;10205;49.678;6.560;2023-07-08T08:17:46;27.10;43.00
20091;DHT22;10205;49.678;6.560;2023-07-08T08:20:16;27.20;43.00
20091;DHT22;10205;49.678;6.560;2023-07-08T08:23:08;27.30;42.70
20091;DHT22;10205;49.678;6.560;2023-07-08T08:25:36;27.40;42.60
20091;DHT22;10205;49.678;6.560;2023-07-08T08:28:03;27.50;42.60
20091;DHT22;10205;49.678;6.560;2023-07-08T08:30:31;27.60;42.50
20091;DHT22;10205;49.678;6.560;2023-07-08T08:33:00;27.70;42.30
20091;DHT22;10205;49.678;6.560;2023-07-08T08:35:29;27.80;42.30
20091;DHT22;10205;49.678;6.560;2023-07-08T08:37:56;27.90;42.30
20091;DHT22;10205;49.678;6.560;2023-07-08T08:40:23;28.00;42.20
20091;DHT22;10205;49.678;6.560;2023-07-08T08:42:53;28.10;42.30
20091;DHT22;10205;49.678;6.560;2023-07-08T08:45:27;28.20;42.20
20091;DHT22;10205;49.678;6.560;2023-07-08T08:48:00;28.30;42.10
20091;DHT22;10205;49.678;6.560;2023-07-08T08:50:36;28.40;42.10
20091;DHT22;10205;49.678;6.560;2023-07-08T08:53:12;28.50;42.10
20091;DHT22;10205;49.678;6.560;2023-07-08T08:55:41;28.60;41.90
20091;DHT22;10205;49.678;6.560;2023-07-08T08:58:17;28.70;41.80
20091;DHT22;10205;49.678;6.560;2023-07-08T09:00:55;28.80;41.50
20091;DHT22;10205;49.678;6.560;2023-07-08T09:03:34;29.00;41.50
20091;DHT22;10205;49.678;6.560;2023-07-08T09:06:20;29.10;41.60
20091;DHT22;10205;49.678;6.560;2023-07-08T09:08:50;29.20;41.40
20091;DHT22;10205;49.678;6.560;2023-07-08T09:11:27;29.30;41.40
20091;DHT22;10205;49.678;6.560;2023-07-08T09:14:13;29.40;41.20
20091;DHT22;10205;49.678;6.560;2023-07-08T09:16:49;29.50;41.10
20091;DHT22;10205;49.678;6.560;2023-07-08T09:19:25;29.60;40.90
20091;DHT22;10205;49.678;6.560;2023-07-08T09:22:04;29.80;40.90
20091;DHT22;10205;49.678;6.560;2023-07-08T09:24:42;29.80;40.60
20091;DHT22;10205;49.678;6.560;2023-07-08T09:27:12;30.00;40.70
20091;DHT22;10205;49.678;6.560;2023-07-08T09:29:39;30.10;40.80
20091;DHT22;10205;49.678;6.560;2023-07-08T09:32:15;30.20;40.50
20091;DHT22;10205;49.678;6.560;2023-07-08T09:34:46;30.30;41.00
20091;DHT22;10205;49.678;6.560;2023-07-08T09:37:37;30.40;40.50
20091;DHT22;10205;49.678;6.560;2023-07-08T09:40:16;30.50;40.30
20091;DHT22;10205;49.678;6.560;2023-07-08T09:42:46;30.70;40.20
20091;DHT22;10205;49.678;6.560;2023-07-08T09:45:19;30.80;40.30
20091;DHT22;10205;49.678;6.560;2023-07-08T09:47:52;30.90;40.30
20091;DHT22;10205;49.678;6.560;2023-07-08T09:50:23;31.00;40.00
20091;DHT22;10205;49.678;6.560;2023-07-08T09:53:02;31.10;39.90
20091;DHT22;10205;49.678;6.560;2023-07-08T09:55:30;31.20;39.80
20091;DHT22;10205;49.678;6.560;2023-07-08T09:57:59;31.30;39.80
20091;DHT22;10205;49.678;6.560;2023-07-08T10:00:39;31.40;39.40
20091;DHT22;10205;49.678;6.560;2023-07-08T10:03:22;31.60;39.70
20091;DHT22;10205;49.678;6.560;2023-07-08T10:05:52;31.70;39.40
20091;DHT22;10205;49.678;6.560;2023-07-08T10:08:41;31.80;39.40
20091;DHT22;10205;49.678;6.560;2023-07-08T10:11:27;31.90;39.10
20091;DHT22;10205;49.678;6.560;2023-07-08T10:14:23;32.10;39.30
20091;DHT22;10205;49.678;6.560;2023-07-08T10:16:54;32.20;39.30
20091;DHT22;10205;49.678;6.560;2023-07-08T10:19:21;32.30;39.30
20091;DHT22;10205;49.678;6.560;2023-07-08T10:22:17;32.40;39.00
20091;DHT22;10205;49.678;6.560;2023-07-08T10:25:07;32.50;38.70
20091;DHT22;10205;49.678;6.560;2023-07-08T10:27:46;32.70;38.80
20091;DHT22;10205;49.678;6.560;2023-07-08T10:30:25;32.80;38.60
20091;DHT22;10205;49.678;6.560;2023-07-08T10:33:17;32.90;38.70
20091;DHT22;10205;49.678;6.560;2023-07-08T10:36:27;33.00;38.40
20091;DHT22;10205;49.678;6.560;2023-07-08T10:39:28;33.20;38.20
20091;DHT22;10205;49.678;6.560;2023-07-08T10:42:20;33.30;38.10
20091;DHT22;10205;49.678;6.560;2023-07-08T10:45:04;33.40;38.00
20091;DHT22;10205;49.678;6.560;2023-07-08T10:47:45;33.60;38.00
20091;DHT22;10205;49.678;6.560;2023-07-08T10:50:35;33.70;37.90
20091;DHT22;10205;49.678;6.560;2023-07-08T10:53:31;33.80;37.60
20091;DHT22;10205;49.678;6.560;2023-07-08T10:56:33;33.90;37.60
20091;DHT22;10205;49.678;6.560;2023-07-08T10:59:37;34.00;37.20
20091;DHT22;10205;49.678;6.560;2023-07-08T11:02:34;34.20;37.20
20091;DHT22;10205;49.678;6.560;2023-07-08T11:05:26;34.30;37.00
20091;DHT22;10205;49.678;6.560;2023-07-08T11:08:02;34.50;37.30
20091;DHT22;10205;49.678;6.560;2023-07-08T11:10:40;34.50;37.00
20091;DHT22;10205;49.678;6.560;2023-07-08T11:13:17;34.70;37.10
20091;DHT22;10205;49.678;6.560;2023-07-08T11:15:51;34.80;36.90
20091;DHT22;10205;49.678;6.560;2023-07-08T11:18:28;34.80;36.80
20091;DHT22;10205;49.678;6.560;2023-07-08T11:21:16;35.00;36.60
20091;DHT22;10205;49.678;6.560;2023-07-08T11:23:51;35.10;36.50
20091;DHT22;10205;49.678;6.560;2023-07-08T11:26:26;35.20;36.20
20091;DHT22;10205;49.678;6.560;2023-07-08T11:32:39;35.40;35.50
20091;DHT22;10205;49.678;6.560;2023-07-08T11:35:18;35.60;35.60
20091;DHT22;10205;49.678;6.560;2023-07-08T11:37:49;35.70;35.50
20091;DHT22;10205;49.678;6.560;2023-07-08T11:40:20;35.80;35.50
20091;DHT22;10205;49.678;6.560;2023-07-08T11:42:49;35.80;35.30
20091;DHT22;10205;49.678;6.560;2023-07-08T11:45:25;36.00;35.90
20091;DHT22;10205;49.678;6.560;2023-07-08T11:48:05;36.10;35.30
20091;DHT22;10205;49.678;6.560;2023-07-08T11:50:41;36.10;34.90
20091;DHT22;10205;49.678;6.560;2023-07-08T11:53:11;36.30;35.10
20091;DHT22;10205;49.678;6.560;2023-07-08T11:55:43;36.30;34.90
20091;DHT22;10205;49.678;6.560;2023-07-08T11:58:21;36.40;34.70
20091;DHT22;10205;49.678;6.560;2023-07-08T12:00:58;36.50;34.60
20091;DHT22;10205;49.678;6.560;2023-07-08T12:03:35;36.60;34.50
20091;DHT22;10205;49.678;6.560;2023-07-08T12:06:44;36.70;34.50
20091;DHT22;10205;49.678;6.560;2023-07-08T12:09:21;36.80;34.60
20091;DHT22;10205;49.678;6.560;2023-07-08T12:12:17;36.90;34.40
20091;DHT22;10205;49.678;6.560;2023-07-08T12:15:11;37.00;34.30
20091;DHT22;10205;49.678;6.560;2023-07-08T12:17:42;37.00;34.50
20091;DHT22;10205;49.678;6.560;2023-07-08T12:20:17;37.20;33.80
20091;DHT22;10205;49.678;6.560;2023-07-08T12:22:49;37.30;33.80
20091;DHT22;10205;49.678;6.560;2023-07-08T12:25:19;37.30;33.90
20091;DHT22;10205;49.678;6.560;2023-07-08T12:27:48;37.40;33.40
20091;DHT22;10205;49.678;6.560;2023-07-08T12:30:16;37.50;33.70
20091;DHT22;10205;49.678;6.560;2023-07-08T12:32:44;37.50;33.60
20091;DHT22;10205;49.678;6.560;2023-07-08T12:35:21;37.60;33.20
20091;DHT22;10205;49.678;6.560;2023-07-08T12:37:54;37.70;33.00
20091;DHT22;10205;49.678;6.560;2023-07-08T12:40:25;37.80;32.60
20091;DHT22;10205;49.678;6.560;2023-07-08T12:42:54;37.90;32.80
20091;DHT22;10205;49.678;6.560;2023-07-08T12:45:27;38.00;33.00
20091;DHT22;10205;49.678;6.560;2023-07-08T12:47:57;38.00;32.80
20091;DHT22;10205;49.678;6.560;2023-07-08T12:50:24;38.10;32.60
20091;DHT22;10205;49.678;6.560;2023-07-08T12:52:53;38.20;32.70
20091;DHT22;10205;49.678;6.560;2023-07-08T12:55:23;38.30;32.80
20091;DHT22;10205;49.678;6.560;2023-07-08T12:58:04;38.30;32.30
20091;DHT22;10205;49.678;6.560;2023-07-08T13:00:34;38.40;31.50
20091;DHT22;10205;49.678;6.560;2023-07-08T13:05:40;38.60;32.20
20091;DHT22;10205;49.678;6.560;2023-07-08T13:08:11;38.60;32.10
20091;DHT22;10205;49.678;6.560;2023-07-08T13:10:40;38.60;32.10
20091;DHT22;10205;49.678;6.560;2023-07-08T13:13:12;38.70;31.80
20091;DHT22;10205;49.678;6.560;2023-07-08T13:15:44;38.70;32.00
20091;DHT22;10205;49.678;6.560;2023-07-08T13:18:16;38.90;31.60
20091;DHT22;10205;49.678;6.560;2023-07-08T13:20:48;38.90;32.00
20091;DHT22;10205;49.678;6.560;2023-07-08T13:23:19;38.90;31.80
20091;DHT22;10205;49.678;6.560;2023-07-08T13:25:50;39.00;32.00
20091;DHT22;10205;49.678;6.560;2023-07-08T13:28:22;39.10;31.80
20091;DHT22;10205;49.678;6.560;2023-07-08T13:30:52;39.20;31.70
20091;DHT22;10205;49.678;6.560;2023-07-08T13:33:21;39.20;31.40
20091;DHT22;10205;49.678;6.560;2023-07-08T13:35:52;39.30;30.90
20091;DHT22;10205;49.678;6.560;2023-07-08T13:38:22;39.40;30.70
20091;DHT22;10205;49.678;6.560;2023-07-08T13:40:54;39.40;31.10
20091;DHT22;10205;49.678;6.560;2023-07-08T13:43:25;39.40;30.50
20091;DHT22;10205;49.678;6.560;2023-07-08T13:45:54;39.50;30.80
20091;DHT22;10205;49.678;6.560;2023-07-08T13:48:26;39.50;30.60
20091;DHT22;10205;49.678;6.560;2023-07-08T13:51:01;39.60;30.00
20091;DHT22;10205;49.678;6.560;2023-07-08T13:53:43;39.60;30.00
20091;DHT22;10205;49.678;6.560;2023-07-08T13:56:15;39.70;30.40
20091;DHT22;10205;49.678;6.560;2023-07-08T13:58:47;39.80;30.40
20091;DHT22;10205;49.678;6.560;2023-07-08T14:01:19;39.80;30.00
20091;DHT22;10205;49.678;6.560;2023-07-08T14:03:48;39.90;29.90
20091;DHT22;10205;49.678;6.560;2023-07-08T14:06:19;39.90;30.10
20091;DHT22;10205;49.678;6.560;2023-07-08T14:08:49;40.00;30.20
20091;DHT22;10205;49.678;6.560;2023-07-08T14:11:18;40.00;29.90
20091;DHT22;10205;49.678;6.560;2023-07-08T14:13:45;40.10;30.00
20091;DHT22;10205;49.678;6.560;2023-07-08T14:16:23;40.10;29.90
20091;DHT22;10205;49.678;6.560;2023-07-08T14:18:53;40.10;29.30
20091;DHT22;10205;49.678;6.560;2023-07-08T14:21:23;40.20;29.70
20091;DHT22;10205;49.678;6.560;2023-07-08T14:23:50;40.30;29.80
20091;DHT22;10205;49.678;6.560;2023-07-08T14:26:17;40.30;29.80
20091;DHT22;10205;49.678;6.560;2023-07-08T14:28:45;40.40;29.90
20091;DHT22;10205;49.678;6.560;2023-07-08T14:31:15;40.40;29.30
20091;DHT22;10205;49.678;6.560;2023-07-08T14:33:46;40.40;29.20
20091;DHT22;10205;49.678;6.560;2023-07-08T14:36:15;40.50;29.80
20091;DHT22;10205;49.678;6.560;2023-07-08T14:38:44;40.50;29.30
20091;DHT22;10205;49.678;6.560;2023-07-08T14:41:11;40.50;29.10
20091;DHT22;10205;49.678;6.560;2023-07-08T14:43:39;40.50;29.50
20091;DHT22;10205;49.678;6.560;2023-07-08T14:46:09;40.60;29.50
20091;DHT22;10205;49.678;6.560;2023-07-08T14:48:37;40.60;29.50
20091;DHT22;10205;49.678;6.560;2023-07-08T14:51:05;40.70;29.90
20091;DHT22;10205;49.678;6.560;2023-07-08T14:53:33;40.70;29.90
20091;DHT22;10205;49.678;6.560;2023-07-08T14:56:06;40.70;29.90
20091;DHT22;10205;49.678;6.560;2023-07-08T14:58:42;40.70;29.80
20091;DHT22;10205;49.678;6.560;2023-07-08T15:01:15;40.80;29.80
20091;DHT22;10205;49.678;6.560;2023-07-08T15:03:45;40.80;29.40
20091;DHT22;10205;49.678;6.560;2023-07-08T15:06:13;40.80;29.60
20091;DHT22;10205;49.678;6.560;2023-07-08T15:08:40;40.80;29.70
20091;DHT22;10205;49.678;6.560;2023-07-08T15:11:11;40.90;29.70
20091;DHT22;10205;49.678;6.560;2023-07-08T15:13:40;40.90;29.70
20091;DHT22;10205;49.678;6.560;2023-07-08T15:16:13;40.90;29.50
20091;DHT22;10205;49.678;6.560;2023-07-08T15:18:42;40.90;29.30
20091;DHT22;10205;49.678;6.560;2023-07-08T15:21:11;40.90;29.50
20091;DHT22;10205;49.678;6.560;2023-07-08T15:23:39;40.90;29.10
20091;DHT22;10205;49.678;6.560;2023-07-08T15:26:11;41.00;29.30
20091;DHT22;10205;49.678;6.560;2023-07-08T15:28:41;41.00;29.10
20091;DHT22;10205;49.678;6.560;2023-07-08T15:31:14;41.00;29.50
20091;DHT22;10205;49.678;6.560;2023-07-08T15:33:43;41.00;29.50
20091;DHT22;10205;49.678;6.560;2023-07-08T15:36:11;41.10;29.70
20091;DHT22;10205;49.678;6.560;2023-07-08T15:38:40;41.10;29.60
20091;DHT22;10205;49.678;6.560;2023-07-08T15:41:15;41.10;29.60
20091;DHT22;10205;49.678;6.560;2023-07-08T15:43:47;41.10;30.00
20091;DHT22;10205;49.678;6.560;2023-07-08T15:46:15;41.20;29.60
20091;DHT22;10205;49.678;6.560;2023-07-08T15:48:43;41.20;29.40
20091;DHT22;10205;49.678;6.560;2023-07-08T15:51:13;41.20;29.60
20091;DHT22;10205;49.678;6.560;2023-07-08T15:53:41;41.20;29.40
20091;DHT22;10205;49.678;6.560;2023-07-08T15:56:12;41.30;29.20
20091;DHT22;10205;49.678;6.560;2023-07-08T15:58:44;41.30;28.50
20091;DHT22;10205;49.678;6.560;2023-07-08T16:01:17;41.30;28.70
20091;DHT22;10205;49.678;6.560;2023-07-08T16:03:49;41.30;28.90
20091;DHT22;10205;49.678;6.560;2023-07-08T16:06:17;41.30;28.90
20091;DHT22;10205;49.678;6.560;2023-07-08T16:08:45;41.30;28.90
20091;DHT22;10205;49.678;6.560;2023-07-08T16:11:15;41.30;29.00